sensor_id;sensor_type;location;lat;lon;timestamp;pressure;altitude;pressure_sealevel;temperature;humidity
28630;BME280;15817;42.130;24.762;2023-03-14T00:00:52;100360.72;;;6.84;52.46
28630;BME280;15817;42.130;24.762;2023-03-14T00:03:21;100367.84;;;6.86;52.41
28630;BME280;15817;42.130;24.762;2023-03-14T00:05:50;100359.09;;;6.90;52.47
28630;BME280;15817;42.130;24.762;2023-03-14T00:08:15;100352.94;;;6.92;52.64
28630;BME280;15817;42.130;24.762;2023-03-14T00:10:49;100355.50;;;6.87;52.65
28630;BME280;15817;42.130;24.762;2023-03-14T00:13:17;100352.66;;;6.75;52.69
28630;BME280;15817;42.130;24.762;2023-03-14T00:15:43;100353.38;;;6.66;53.48
28630;BME280;15817;42.130;24.762;2023-03-14T00:18:09;100352.44;;;6.63;53.79
28630;BME280;15817;42.130;24.762;2023-03-14T00:20:34;100342.66;;;6.59;53.98
28630;BME280;15817;42.130;24.762;2023-03-14T00:23:03;100347.09;;;6.60;54.16
28630;BME280;15817;42.130;24.762;2023-03-14T00:25:28;100331.13;;;6.53;53.69
28630;BME280;15817;42.130;24.762;2023-03-14T00:27:54;100324.63;;;6.35;53.79
28630;BME280;15817;42.130;24.762;2023-03-14T00:30:23;100328.03;;;6.28;54.01
28630;BME280;15817;42.130;24.762;2023-03-14T00:32:56;100332.41;;;6.27;54.30
28630;BME280;15817;42.130;24.762;2023-03-14T00:35:22;100316.41;;;6.18;54.53
28630;BME280;15817;42.130;24.762;2023-03-14T00:37:48;100315.59;;;6.24;54.20
28630;BME280;15817;42.130;24.762;2023-03-14T00:40:14;100319.13;;;6.23;54.50
28630;BME280;15817;42.130;24.762;2023-03-14T00:42:40;100306.75;;;6.20;54.43
28630;BME280;15817;42.130;24.762;2023-03-14T00:45:06;100316.56;;;6.27;54.64
28630;BME280;15817;42.130;24.762;2023-03-14T00:47:34;100300.66;;;6.23;54.98
28630;BME280;15817;42.130;24.762;2023-03-14T00:50:00;100303.19;;;6.18;54.85
28630;BME280;15817;42.130;24.762;2023-03-14T00:52:27;100294.19;;;6.07;55.26
28630;BME280;15817;42.130;24.762;2023-03-14T00:54:53;100306.47;;;6.05;55.57
28630;BME280;15817;42.130;24.762;2023-03-14T00:57:21;100305.69;;;6.12;55.56
28630;BME280;15817;42.130;24.762;2023-03-14T00:59:50;100288.91;;;6.07;55.56
28630;BME280;15817;42.130;24.762;2023-03-14T01:02:17;100287.94;;;6.03;55.25
28630;BME280;15817;42.130;24.762;2023-03-14T01:04:42;100295.13;;;6.10;55.31
28630;BME280;15817;42.130;24.762;2023-03-14T01:07:11;100281.94;;;6.12;55.28
28630;BME280;15817;42.130;24.762;2023-03-14T01:09:38;100276.75;;;6.16;55.46
28630;BME280;15817;42.130;24.762;2023-03-14T01:12:06;100274.03;;;6.13;55.00
28630;BME280;15817;42.130;24.762;2023-03-14T01:14:32;100268.66;;;6.07;55.35
28630;BME280;15817;42.130;24.762;2023-03-14T01:16:58;100256.31;;;6.06;55.19
28630;BME280;15817;42.130;24.762;2023-03-14T01:19:28;100269.66;;;6.14;55.35
28630;BME280;15817;42.130;24.762;2023-03-14T01:21:54;100251.94;;;6.07;55.30
28630;BME280;15817;42.130;24.762;2023-03-14T01:24:20;100271.44;;;6.15;55.33
28630;BME280;15817;42.130;24.762;2023-03-14T01:26:48;100272.38;;;6.17;55.32
28630;BME280;15817;42.130;24.762;2023-03-14T01:29:14;100257.31;;;6.11;55.57
28630;BME280;15817;42.130;24.762;2023-03-14T01:31:40;100258.97;;;6.06;55.43
28630;BME280;15817;42.130;24.762;2023-03-14T01:34:06;100264.13;;;6.00;56.00
28630;BME280;15817;42.130;24.762;2023-03-14T01:36:32;100264.84;;;5.92;56.39
28630;BME280;15817;42.130;24.762;2023-03-14T01:39:03;100254.28;;;5.92;56.68
28630;BME280;15817;42.130;24.762;2023-03-14T01:41:32;100255.06;;;5.88;56.10
28630;BME280;15817;42.130;24.762;2023-03-14T01:43:59;100253.41;;;5.93;56.52
28630;BME280;15817;42.130;24.762;2023-03-14T01:49:29;100251.72;;;5.95;56.65
28630;BME280;15817;42.130;24.762;2023-03-14T01:52:16;100256.88;;;5.90;56.87
28630;BME280;15817;42.130;24.762;2023-03-14T01:54:53;100259.50;;;5.89;57.21
28630;BME280;15817;42.130;24.762;2023-03-14T01:57:24;100245.44;;;5.88;57.24
28630;BME280;15817;42.130;24.762;2023-03-14T02:00:28;100252.53;;;5.92;57.50
28630;BME280;15817;42.130;24.762;2023-03-14T02:03:13;100245.44;;;5.90;57.38
28630;BME280;15817;42.130;24.762;2023-03-14T02:06:09;100245.34;;;5.85;57.31
28630;BME280;15817;42.130;24.762;2023-03-14T02:08:50;100249.75;;;5.86;57.52
28630;BME280;15817;42.130;24.762;2023-03-14T02:11:26;100237.31;;;5.80;57.48
28630;BME280;15817;42.130;24.762;2023-03-14T02:14:04;100240.84;;;5.81;57.29
28630;BME280;15817;42.130;24.762;2023-03-14T02:16:49;100226.72;;;5.79;56.78
28630;BME280;15817;42.130;24.762;2023-03-14T02:19:49;100242.59;;;5.80;56.87
28630;BME280;15817;42.130;24.762;2023-03-14T02:22:34;100233.81;;;5.81;56.67
28630;BME280;15817;42.130;24.762;2023-03-14T02:27:37;100232.94;;;5.81;56.60
28630;BME280;15817;42.130;24.762;2023-03-14T02:30:13;100231.03;;;5.74;56.61
28630;BME280;15817;42.130;24.762;2023-03-14T02:32:44;100219.53;;;5.70;56.76
28630;BME280;15817;42.130;24.762;2023-03-14T02:35:18;100231.91;;;5.73;56.86
28630;BME280;15817;42.130;24.762;2023-03-14T02:40:26;100224.41;;;5.49;57.12
28630;BME280;15817;42.130;24.762;2023-03-14T02:42:52;100235.03;;;5.52;57.45
28630;BME280;15817;42.130;24.762;2023-03-14T02:47:54;100233.25;;;5.51;57.60
28630;BME280;15817;42.130;24.762;2023-03-14T02:50:26;100239.25;;;5.45;57.40
28630;BME280;15817;42.130;24.762;2023-03-14T02:52:55;100241.81;;;5.41;57.73
28630;BME280;15817;42.130;24.762;2023-03-14T02:55:25;100230.34;;;5.39;57.83
28630;BME280;15817;42.130;24.762;2023-03-14T02:57:57;100245.50;;;5.49;57.75
28630;BME280;15817;42.130;24.762;2023-03-14T03:00:23;100244.72;;;5.55;57.61
28630;BME280;15817;42.130;24.762;2023-03-14T03:02:50;100244.81;;;5.59;57.57
28630;BME280;15817;42.130;24.762;2023-03-14T03:05:16;100236.81;;;5.55;57.17
28630;BME280;15817;42.130;24.762;2023-03-14T03:07:42;100234.94;;;5.49;57.04
28630;BME280;15817;42.130;24.762;2023-03-14T03:10:09;100256.06;;;5.49;57.21
28630;BME280;15817;42.130;24.762;2023-03-14T03:12:35;100251.56;;;5.45;57.55
28630;BME280;15817;42.130;24.762;2023-03-14T03:15:01;100256.94;;;5.50;57.68
28630;BME280;15817;42.130;24.762;2023-03-14T03:17:26;100247.22;;;5.47;57.88
28630;BME280;15817;42.130;24.762;2023-03-14T03:19:54;100251.53;;;5.42;57.95
28630;BME280;15817;42.130;24.762;2023-03-14T03:22:19;100256.84;;;5.45;58.22
28630;BME280;15817;42.130;24.762;2023-03-14T03:24:48;100246.28;;;5.45;58.14
28630;BME280;15817;42.130;24.762;2023-03-14T03:27:17;100235.59;;;5.37;58.24
28630;BME280;15817;42.130;24.762;2023-03-14T03:29:43;100240.84;;;5.37;58.69
28630;BME280;15817;42.130;24.762;2023-03-14T03:32:09;100250.38;;;5.31;58.82
28630;BME280;15817;42.130;24.762;2023-03-14T03:34:38;100241.72;;;5.36;59.08
28630;BME280;15817;42.130;24.762;2023-03-14T03:37:05;100234.59;;;5.32;59.37
28630;BME280;15817;42.130;24.762;2023-03-14T03:39:35;100242.59;;;5.37;59.26
28630;BME280;15817;42.130;24.762;2023-03-14T03:42:01;100243.53;;;5.39;59.40
28630;BME280;15817;42.130;24.762;2023-03-14T03:44:46;100235.44;;;5.30;59.92
28630;BME280;15817;42.130;24.762;2023-03-14T03:47:13;100235.41;;;5.28;59.81
28630;BME280;15817;42.130;24.762;2023-03-14T03:49:38;100241.75;;;5.38;59.97
28630;BME280;15817;42.130;24.762;2023-03-14T03:52:05;100239.13;;;5.38;59.87
28630;BME280;15817;42.130;24.762;2023-03-14T03:54:31;100253.09;;;5.34;59.99
28630;BME280;15817;42.130;24.762;2023-03-14T03:56:57;100228.16;;;5.20;60.13
28630;BME280;15817;42.130;24.762;2023-03-14T04:02:39;100232.47;;;5.15;60.43
28630;BME280;15817;42.130;24.762;2023-03-14T04:05:07;100230.75;;;5.17;60.58
28630;BME280;15817;42.130;24.762;2023-03-14T04:07:33;100228.19;;;5.21;61.15
28630;BME280;15817;42.130;24.762;2023-03-14T04:10:03;100233.63;;;5.27;61.35
28630;BME280;15817;42.130;24.762;2023-03-14T04:12:33;100214.09;;;5.18;60.84
28630;BME280;15817;42.130;24.762;2023-03-14T04:15:10;100223.66;;;5.14;60.70
28630;BME280;15817;42.130;24.762;2023-03-14T04:17:38;100220.69;;;4.99;61.31
28630;BME280;15817;42.130;24.762;2023-03-14T04:20:05;100209.81;;;4.84;61.38
28630;BME280;15817;42.130;24.762;2023-03-14T04:22:34;100219.41;;;4.80;61.65
28630;BME280;15817;42.130;24.762;2023-03-14T04:25:04;100220.09;;;4.73;61.55
28630;BME280;15817;42.130;24.762;2023-03-14T04:27:34;100208.53;;;4.66;61.84
28630;BME280;15817;42.130;24.762;2023-03-14T04:30:01;100211.91;;;4.59;61.67
28630;BME280;15817;42.130;24.762;2023-03-14T04:32:50;100210.19;;;4.63;61.89
28630;BME280;15817;42.130;24.762;2023-03-14T04:35:18;100219.19;;;4.71;61.91
28630;BME280;15817;42.130;24.762;2023-03-14T04:37:44;100201.56;;;4.68;62.15
28630;BME280;15817;42.130;24.762;2023-03-14T04:40:16;100216.66;;;4.76;62.53
28630;BME280;15817;42.130;24.762;2023-03-14T04:42:44;100200.75;;;4.71;62.98
28630;BME280;15817;42.130;24.762;2023-03-14T04:45:11;100214.91;;;4.76;63.07
28630;BME280;15817;42.130;24.762;2023-03-14T04:47:40;100198.13;;;4.71;63.11
28630;BME280;15817;42.130;24.762;2023-03-14T04:50:08;100197.28;;;4.72;63.09
28630;BME280;15817;42.130;24.762;2023-03-14T04:52:36;100203.44;;;4.72;63.27
28630;BME280;15817;42.130;24.762;2023-03-14T04:55:02;100212.31;;;4.78;63.40
28630;BME280;15817;42.130;24.762;2023-03-14T04:57:28;100208.78;;;4.77;63.38
28630;BME280;15817;42.130;24.762;2023-03-14T04:59:58;100215.91;;;4.81;63.60
28630;BME280;15817;42.130;24.762;2023-03-14T05:02:42;100224.72;;;4.82;63.79
28630;BME280;15817;42.130;24.762;2023-03-14T05:05:32;100223.75;;;4.78;64.05
28630;BME280;15817;42.130;24.762;2023-03-14T05:08:27;100234.41;;;4.83;63.74
28630;BME280;15817;42.130;24.762;2023-03-14T05:11:25;100226.41;;;4.80;63.30
28630;BME280;15817;42.130;24.762;2023-03-14T05:14:14;100244.00;;;4.81;63.36
28630;BME280;15817;42.130;24.762;2023-03-14T05:16:58;100233.34;;;4.76;63.51
28630;BME280;15817;42.130;24.762;2023-03-14T05:19:36;100233.13;;;4.67;63.15
28630;BME280;15817;42.130;24.762;2023-03-14T05:22:21;100234.66;;;4.57;63.65
28630;BME280;15817;42.130;24.762;2023-03-14T05:24:57;100237.41;;;4.62;63.91
28630;BME280;15817;42.130;24.762;2023-03-14T05:27:42;100236.72;;;4.69;64.47
28630;BME280;15817;42.130;24.762;2023-03-14T05:30:26;100244.84;;;4.80;64.44
28630;BME280;15817;42.130;24.762;2023-03-14T05:33:11;100239.59;;;4.80;64.13
28630;BME280;15817;42.130;24.762;2023-03-14T05:36:03;100233.38;;;4.78;64.35
28630;BME280;15817;42.130;24.762;2023-03-14T05:38:53;100239.78;;;4.89;64.37
28630;BME280;15817;42.130;24.762;2023-03-14T05:41:30;100231.00;;;4.88;64.67
28630;BME280;15817;42.130;24.762;2023-03-14T05:44:24;100238.16;;;4.94;65.03
28630;BME280;15817;42.130;24.762;2023-03-14T05:46:56;100232.03;;;4.95;65.20
28630;BME280;15817;42.130;24.762;2023-03-14T05:49:37;100226.88;;;5.01;65.92
28630;BME280;15817;42.130;24.762;2023-03-14T05:52:26;100237.75;;;5.15;65.63
28630;BME280;15817;42.130;24.762;2023-03-14T05:55:06;100239.59;;;5.19;66.03
28630;BME280;15817;42.130;24.762;2023-03-14T05:57:50;100237.00;;;5.22;65.46
28630;BME280;15817;42.130;24.762;2023-03-14T06:00:28;100245.09;;;5.29;66.19
28630;BME280;15817;42.130;24.762;2023-03-14T06:03:16;100243.28;;;5.27;66.46
28630;BME280;15817;42.130;24.762;2023-03-14T06:05:54;100237.28;;;5.35;66.76
28630;BME280;15817;42.130;24.762;2023-03-14T06:08:27;100229.28;;;5.31;66.39
28630;BME280;15817;42.130;24.762;2023-03-14T06:10:53;100230.28;;;5.36;66.17
28630;BME280;15817;42.130;24.762;2023-03-14T06:13:27;100228.56;;;5.38;65.71
28630;BME280;15817;42.130;24.762;2023-03-14T06:15:53;100228.47;;;5.33;65.79
28630;BME280;15817;42.130;24.762;2023-03-14T06:18:19;100225.78;;;5.30;65.74
28630;BME280;15817;42.130;24.762;2023-03-14T06:20:46;100217.91;;;5.33;66.12
28630;BME280;15817;42.130;24.762;2023-03-14T06:23:21;100224.31;;;5.46;65.92
28630;BME280;15817;42.130;24.762;2023-03-14T06:25:47;100211.84;;;5.37;66.22
28630;BME280;15817;42.130;24.762;2023-03-14T06:28:16;100211.00;;;5.38;66.20
28630;BME280;15817;42.130;24.762;2023-03-14T06:30:45;100218.00;;;5.38;66.05
28630;BME280;15817;42.130;24.762;2023-03-14T06:33:16;100221.66;;;5.44;65.82
28630;BME280;15817;42.130;24.762;2023-03-14T06:35:49;100223.53;;;5.50;65.97
28630;BME280;15817;42.130;24.762;2023-03-14T06:38:17;100227.19;;;5.57;65.71
28630;BME280;15817;42.130;24.762;2023-03-14T06:40:53;100222.72;;;5.54;65.77
28630;BME280;15817;42.130;24.762;2023-03-14T06:43:28;100213.91;;;5.52;66.02
28630;BME280;15817;42.130;24.762;2023-03-14T06:45:57;100220.97;;;5.53;65.47
28630;BME280;15817;42.130;24.762;2023-03-14T06:48:23;100230.84;;;5.63;66.08
28630;BME280;15817;42.130;24.762;2023-03-14T06:50:53;100224.72;;;5.64;65.77
28630;BME280;15817;42.130;24.762;2023-03-14T06:53:21;100221.97;;;5.60;65.54
28630;BME280;15817;42.130;24.762;2023-03-14T06:55:50;100228.38;;;5.72;66.38
28630;BME280;15817;42.130;24.762;2023-03-14T06:58:30;100207.06;;;5.62;64.97
28630;BME280;15817;42.130;24.762;2023-03-14T07:00:57;100208.84;;;5.63;65.99
28630;BME280;15817;42.130;24.762;2023-03-14T07:03:28;100201.94;;;5.71;65.62
28630;BME280;15817;42.130;24.762;2023-03-14T07:05:55;100204.72;;;5.78;65.49
28630;BME280;15817;42.130;24.762;2023-03-14T07:08:21;100197.72;;;5.80;65.38
28630;BME280;15817;42.130;24.762;2023-03-14T07:10:47;100199.66;;;5.89;64.92
28630;BME280;15817;42.130;24.762;2023-03-14T07:13:17;100193.56;;;5.92;64.14
28630;BME280;15817;42.130;24.762;2023-03-14T07:15:56;100182.28;;;6.00;64.20
28630;BME280;15817;42.130;24.762;2023-03-14T07:18:22;100183.22;;;6.04;64.29
28630;BME280;15817;42.130;24.762;2023-03-14T07:23:28;100170.88;;;6.56;63.00
28630;BME280;15817;42.130;24.762;2023-03-14T07:25:55;100181.06;;;6.93;61.48
28630;BME280;15817;42.130;24.762;2023-03-14T07:28:33;100174.34;;;7.15;60.79
28630;BME280;15817;42.130;24.762;2023-03-14T07:31:07;100165.78;;;7.39;59.72
28630;BME280;15817;42.130;24.762;2023-03-14T07:33:33;100163.47;;;7.68;59.19
28630;BME280;15817;42.130;24.762;2023-03-14T07:36:01;100167.19;;;7.88;58.54
28630;BME280;15817;42.130;24.762;2023-03-14T07:38:27;100166.59;;;8.16;57.05
28630;BME280;15817;42.130;24.762;2023-03-14T07:41:21;100172.22;;;8.57;56.56
28630;BME280;15817;42.130;24.762;2023-03-14T07:44:09;100166.19;;;8.81;54.74
28630;BME280;15817;42.130;24.762;2023-03-14T07:46:35;100164.56;;;9.06;54.91
28630;BME280;15817;42.130;24.762;2023-03-14T07:49:01;100154.88;;;9.10;53.63
28630;BME280;15817;42.130;24.762;2023-03-14T07:51:26;100150.44;;;9.13;53.44
28630;BME280;15817;42.130;24.762;2023-03-14T07:53:52;100160.19;;;9.17;53.17
28630;BME280;15817;42.130;24.762;2023-03-14T07:56:18;100161.03;;;9.07;52.62
28630;BME280;15817;42.130;24.762;2023-03-14T07:58:47;100154.91;;;9.25;52.07
28630;BME280;15817;42.130;24.762;2023-03-14T08:01:13;100159.41;;;9.42;52.63
28630;BME280;15817;42.130;24.762;2023-03-14T08:03:41;100147.91;;;9.48;52.13
28630;BME280;15817;42.130;24.762;2023-03-14T08:06:07;100139.97;;;9.60;51.27
28630;BME280;15817;42.130;24.762;2023-03-14T08:08:37;100144.47;;;9.87;50.78
28630;BME280;15817;42.130;24.762;2023-03-14T08:11:05;100148.00;;;10.04;50.37
28630;BME280;15817;42.130;24.762;2023-03-14T08:13:35;100149.78;;;10.17;50.11
28630;BME280;15817;42.130;24.762;2023-03-14T08:16:05;100133.88;;;10.36;49.29
28630;BME280;15817;42.130;24.762;2023-03-14T08:18:34;100145.38;;;10.51;48.44
28630;BME280;15817;42.130;24.762;2023-03-14T08:21:00;100135.63;;;10.55;48.62
28630;BME280;15817;42.130;24.762;2023-03-14T08:23:26;100142.72;;;10.51;48.18
28630;BME280;15817;42.130;24.762;2023-03-14T08:25:54;100141.84;;;10.57;47.71
28630;BME280;15817;42.130;24.762;2023-03-14T08:28:23;100139.19;;;10.60;47.49
28630;BME280;15817;42.130;24.762;2023-03-14T08:30:58;100135.56;;;10.75;46.73
28630;BME280;15817;42.130;24.762;2023-03-14T08:33:24;100132.91;;;10.81;46.42
28630;BME280;15817;42.130;24.762;2023-03-14T08:35:59;100126.63;;;11.02;46.94
28630;BME280;15817;42.130;24.762;2023-03-14T08:38:56;100123.03;;;11.18;45.54
28630;BME280;15817;42.130;24.762;2023-03-14T08:41:24;100114.09;;;11.30;45.46
28630;BME280;15817;42.130;24.762;2023-03-14T08:43:52;100129.09;;;11.47;45.01
28630;BME280;15817;42.130;24.762;2023-03-14T08:46:27;100114.91;;;11.42;44.84
28630;BME280;15817;42.130;24.762;2023-03-14T08:49:18;100103.28;;;11.58;44.45
28630;BME280;15817;42.130;24.762;2023-03-14T08:51:44;100086.47;;;11.52;43.54
28630;BME280;15817;42.130;24.762;2023-03-14T08:54:10;100095.34;;;11.52;43.16
28630;BME280;15817;42.130;24.762;2023-03-14T08:57:11;100093.56;;;11.48;43.69
28630;BME280;15817;42.130;24.762;2023-03-14T08:59:37;100082.91;;;11.53;43.55
28630;BME280;15817;42.130;24.762;2023-03-14T09:02:03;100092.53;;;11.77;43.22
28630;BME280;15817;42.130;24.762;2023-03-14T09:04:30;100064.19;;;11.64;43.55
28630;BME280;15817;42.130;24.762;2023-03-14T09:06:56;100064.06;;;11.83;43.55
28630;BME280;15817;42.130;24.762;2023-03-14T09:09:26;100055.91;;;12.00;43.70
28630;BME280;15817;42.130;24.762;2023-03-14T09:11:56;100046.19;;;11.96;42.42
28630;BME280;15817;42.130;24.762;2023-03-14T09:14:24;100043.25;;;12.23;42.63
28630;BME280;15817;42.130;24.762;2023-03-14T09:16:50;100036.84;;;12.40;42.48
28630;BME280;15817;42.130;24.762;2023-03-14T09:19:16;100037.72;;;12.42;41.26
28630;BME280;15817;42.130;24.762;2023-03-14T09:21:42;100048.19;;;12.61;41.42
28630;BME280;15817;42.130;24.762;2023-03-14T09:24:08;100026.84;;;12.61;40.87
28630;BME280;15817;42.130;24.762;2023-03-14T09:26:34;100025.91;;;12.65;40.21
28630;BME280;15817;42.130;24.762;2023-03-14T09:29:00;100011.78;;;12.56;40.08
28630;BME280;15817;42.130;24.762;2023-03-14T09:31:26;100014.19;;;12.79;40.54
28630;BME280;15817;42.130;24.762;2023-03-14T09:34:03;100009.50;;;12.94;39.75
28630;BME280;15817;42.130;24.762;2023-03-14T09:36:36;100003.72;;;12.59;39.80
28630;BME280;15817;42.130;24.762;2023-03-14T09:39:03;100010.84;;;12.60;40.21
28630;BME280;15817;42.130;24.762;2023-03-14T09:41:34;99996.53;;;12.68;39.78
28630;BME280;15817;42.130;24.762;2023-03-14T09:46:41;99993.28;;;13.11;39.80
28630;BME280;15817;42.130;24.762;2023-03-14T09:49:29;99986.28;;;13.02;39.45
28630;BME280;15817;42.130;24.762;2023-03-14T09:52:00;99984.69;;;12.88;39.01
28630;BME280;15817;42.130;24.762;2023-03-14T09:54:45;99989.00;;;12.98;39.28
28630;BME280;15817;42.130;24.762;2023-03-14T09:57:17;99987.28;;;12.92;38.75
28630;BME280;15817;42.130;24.762;2023-03-14T09:59:47;99984.66;;;12.91;38.53
28630;BME280;15817;42.130;24.762;2023-03-14T10:02:23;99980.06;;;13.02;39.27
28630;BME280;15817;42.130;24.762;2023-03-14T10:04:51;99980.75;;;13.16;39.22
28630;BME280;15817;42.130;24.762;2023-03-14T10:07:23;99970.94;;;13.17;38.15
28630;BME280;15817;42.130;24.762;2023-03-14T10:09:51;99978.69;;;13.36;38.68
28630;BME280;15817;42.130;24.762;2023-03-14T10:12:18;99979.25;;;12.95;38.27
28630;BME280;15817;42.130;24.762;2023-03-14T10:14:55;99956.19;;;12.91;38.50
28630;BME280;15817;42.130;24.762;2023-03-14T10:17:21;99953.97;;;13.22;39.33
28630;BME280;15817;42.130;24.762;2023-03-14T10:19:54;99944.00;;;13.33;39.09
28630;BME280;15817;42.130;24.762;2023-03-14T10:22:21;99938.69;;;13.30;38.33
28630;BME280;15817;42.130;24.762;2023-03-14T10:24:54;99924.38;;;13.36;38.38
28630;BME280;15817;42.130;24.762;2023-03-14T10:27:28;99917.22;;;13.38;38.90
28630;BME280;15817;42.130;24.762;2023-03-14T10:30:07;99912.88;;;13.29;37.93
28630;BME280;15817;42.130;24.762;2023-03-14T10:32:36;99921.59;;;13.40;38.39
28630;BME280;15817;42.130;24.762;2023-03-14T10:35:18;99909.81;;;13.54;38.25
28630;BME280;15817;42.130;24.762;2023-03-14T10:38:04;99908.03;;;13.54;38.94
28630;BME280;15817;42.130;24.762;2023-03-14T10:40:41;99914.63;;;13.84;39.60
28630;BME280;15817;42.130;24.762;2023-03-14T10:43:13;99891.38;;;13.88;38.96
28630;BME280;15817;42.130;24.762;2023-03-14T10:45:43;99889.44;;;13.96;38.74
28630;BME280;15817;42.130;24.762;2023-03-14T10:48:20;99882.63;;;13.80;38.47
28630;BME280;15817;42.130;24.762;2023-03-14T10:53:33;99866.94;;;13.61;38.20
28630;BME280;15817;42.130;24.762;2023-03-14T10:56:02;99866.16;;;13.55;38.58
28630;BME280;15817;42.130;24.762;2023-03-14T10:58:31;99846.28;;;13.69;38.66
28630;BME280;15817;42.130;24.762;2023-03-14T11:07:29;99833.06;;;14.06;38.30
28630;BME280;15817;42.130;24.762;2023-03-14T11:21:45;99784.56;;;14.23;37.35
28630;BME280;15817;42.130;24.762;2023-03-14T11:27:23;99762.84;;;13.97;37.34
28630;BME280;15817;42.130;24.762;2023-03-14T11:30:16;99769.66;;;14.11;37.42
28630;BME280;15817;42.130;24.762;2023-03-14T11:35:52;99742.88;;;14.13;37.19
28630;BME280;15817;42.130;24.762;2023-03-14T11:38:28;99747.03;;;13.86;37.47
28630;BME280;15817;42.130;24.762;2023-03-14T11:40:56;99730.22;;;13.81;37.91
28630;BME280;15817;42.130;24.762;2023-03-14T11:46:03;99715.59;;;13.97;37.71
28630;BME280;15817;42.130;24.762;2023-03-14T11:51:11;99708.94;;;14.15;38.37
28630;BME280;15817;42.130;24.762;2023-03-14T11:56:32;99684.13;;;14.08;38.23
28630;BME280;15817;42.130;24.762;2023-03-14T11:59:13;99675.16;;;14.11;38.71
28630;BME280;15817;42.130;24.762;2023-03-14T12:01:52;99670.69;;;14.11;38.38
28630;BME280;15817;42.130;24.762;2023-03-14T12:07:16;99644.72;;;14.17;39.25
28630;BME280;15817;42.130;24.762;2023-03-14T12:09:47;99635.00;;;14.12;38.58
28630;BME280;15817;42.130;24.762;2023-03-14T12:12:23;99626.91;;;14.16;38.78
28630;BME280;15817;42.130;24.762;2023-03-14T12:15:00;99620.38;;;14.27;38.66
28630;BME280;15817;42.130;24.762;2023-03-14T12:17:38;99629.25;;;14.29;38.79
28630;BME280;15817;42.130;24.762;2023-03-14T12:20:16;99620.19;;;14.35;39.32
28630;BME280;15817;42.130;24.762;2023-03-14T12:22:55;99598.16;;;14.25;39.25
28630;BME280;15817;42.130;24.762;2023-03-14T12:25:25;99607.69;;;14.35;39.23
28630;BME280;15817;42.130;24.762;2023-03-14T12:30:39;99590.72;;;14.36;39.50
28630;BME280;15817;42.130;24.762;2023-03-14T12:35:45;99571.63;;;14.16;39.64
28630;BME280;15817;42.130;24.762;2023-03-14T12:38:45;99568.72;;;14.25;40.00
28630;BME280;15817;42.130;24.762;2023-03-14T12:41:25;99565.19;;;14.23;40.38
28630;BME280;15817;42.130;24.762;2023-03-14T12:43:54;99562.53;;;14.23;40.17
28630;BME280;15817;42.130;24.762;2023-03-14T12:46:26;99566.16;;;14.21;40.63
28630;BME280;15817;42.130;24.762;2023-03-14T12:51:36;99563.41;;;14.24;40.40
28630;BME280;15817;42.130;24.762;2023-03-14T12:57:36;99552.88;;;14.18;40.88
28630;BME280;15817;42.130;24.762;2023-03-14T13:00:34;99540.41;;;14.17;41.06
28630;BME280;15817;42.130;24.762;2023-03-14T13:06:03;99530.91;;;14.05;41.29
28630;BME280;15817;42.130;24.762;2023-03-14T13:08:50;99523.84;;;14.02;41.33
28630;BME280;15817;42.130;24.762;2023-03-14T13:11:26;99533.69;;;14.00;41.48
28630;BME280;15817;42.130;24.762;2023-03-14T13:13:59;99518.75;;;13.92;41.30
28630;BME280;15817;42.130;24.762;2023-03-14T13:16:25;99526.75;;;13.93;41.49
28630;BME280;15817;42.130;24.762;2023-03-14T13:19:23;99522.41;;;13.88;41.67
28630;BME280;15817;42.130;24.762;2023-03-14T13:21:56;99501.28;;;13.78;41.61
28630;BME280;15817;42.130;24.762;2023-03-14T13:24:27;99510.88;;;13.86;41.62
28630;BME280;15817;42.130;24.762;2023-03-14T13:27:00;99518.88;;;13.87;41.75
28630;BME280;15817;42.130;24.762;2023-03-14T13:29:30;99499.50;;;13.77;41.52
28630;BME280;15817;42.130;24.762;2023-03-14T13:32:02;99494.41;;;13.68;41.29
28630;BME280;15817;42.130;24.762;2023-03-14T13:34:36;99497.31;;;13.59;41.71
28630;BME280;15817;42.130;24.762;2023-03-14T13:37:31;99493.72;;;13.60;41.29
28630;BME280;15817;42.130;24.762;2023-03-14T13:40:39;99476.91;;;13.55;41.93
28630;BME280;15817;42.130;24.762;2023-03-14T13:43:23;99478.47;;;13.64;42.14
28630;BME280;15817;42.130;24.762;2023-03-14T13:46:11;99472.25;;;13.63;41.97
28630;BME280;15817;42.130;24.762;2023-03-14T13:48:47;99452.84;;;13.55;41.89
28630;BME280;15817;42.130;24.762;2023-03-14T13:51:20;99445.75;;;13.54;41.89
28630;BME280;15817;42.130;24.762;2023-03-14T13:53:54;99442.25;;;13.51;41.87
28630;BME280;15817;42.130;24.762;2023-03-14T13:56:24;99443.06;;;13.54;42.02
28630;BME280;15817;42.130;24.762;2023-03-14T13:58:50;99438.66;;;13.53;41.93
28630;BME280;15817;42.130;24.762;2023-03-14T14:01:52;99442.09;;;13.58;41.94
28630;BME280;15817;42.130;24.762;2023-03-14T14:04:16;99419.16;;;13.50;42.29
28630;BME280;15817;42.130;24.762;2023-03-14T14:06:58;99414.50;;;13.58;42.27
28630;BME280;15817;42.130;24.762;2023-03-14T14:09:30;99406.53;;;13.56;42.19
28630;BME280;15817;42.130;24.762;2023-03-14T14:14:48;99391.25;;;13.61;41.92
28630;BME280;15817;42.130;24.762;2023-03-14T14:17:18;99395.63;;;13.64;41.68
28630;BME280;15817;42.130;24.762;2023-03-14T14:20:01;99393.81;;;13.64;41.79
28630;BME280;15817;42.130;24.762;2023-03-14T14:22:31;99384.97;;;13.62;41.76
28630;BME280;15817;42.130;24.762;2023-03-14T14:25:06;99385.94;;;13.60;41.60
28630;BME280;15817;42.130;24.762;2023-03-14T14:27:49;99385.09;;;13.58;41.45
28630;BME280;15817;42.130;24.762;2023-03-14T14:30:26;99377.22;;;13.52;41.57